createdAt,value
2022-08-27T00:01:08.980Z,21.92
2022-08-27T00:03:45.308Z,21.80
2022-08-27T00:06:19.097Z,21.61
2022-08-27T00:08:51.929Z,21.62
2022-08-27T00:11:25.752Z,21.67
2022-08-27T00:13:58.014Z,21.49
2022-08-27T00:16:29.739Z,21.30
2022-08-27T00:19:03.300Z,21.15
2022-08-27T00:21:34.940Z,21.07
2022-08-27T00:24:08.489Z,21.11
2022-08-27T00:26:43.308Z,21.09
2022-08-27T00:29:15.683Z,21.16
2022-08-27T00:31:52.718Z,21.12
2022-08-27T00:34:26.098Z,21.06
2022-08-27T00:36:57.524Z,21.09
2022-08-27T00:39:29.003Z,21.23
2022-08-27T00:42:01.945Z,21.28
2022-08-27T00:44:33.801Z,21.19
2022-08-27T00:47:09.444Z,21.26
2022-08-27T00:49:46.023Z,21.36
2022-08-27T00:52:25.640Z,21.38
2022-08-27T00:55:01.801Z,21.39
2022-08-27T00:57:36.086Z,21.37
2022-08-27T01:00:13.069Z,21.32
2022-08-27T01:02:47.029Z,21.31
2022-08-27T01:05:22.030Z,21.40
2022-08-27T01:07:57.195Z,21.38
2022-08-27T01:10:30.796Z,21.31
2022-08-27T01:13:02.442Z,21.37
2022-08-27T01:15:35.282Z,21.39
2022-08-27T01:18:09.609Z,21.33
2022-08-27T01:20:44.354Z,21.32
2022-08-27T01:23:20.869Z,21.20
2022-08-27T01:25:53.208Z,21.11
2022-08-27T01:28:29.234Z,21.03
2022-08-27T01:31:11.559Z,20.89
2022-08-27T01:33:54.760Z,20.74
2022-08-27T01:36:26.355Z,20.74
2022-08-27T01:38:57.747Z,20.80
2022-08-27T01:41:30.684Z,20.83
2022-08-27T01:44:02.542Z,20.83
2022-08-27T01:46:33.959Z,20.72
2022-08-27T01:49:05.617Z,20.58
2022-08-27T01:51:39.006Z,20.50
2022-08-27T01:54:11.216Z,20.46
2022-08-27T01:56:42.565Z,20.45
2022-08-27T01:59:14.616Z,20.46
2022-08-27T02:01:46.301Z,20.35
2022-08-27T02:04:17.950Z,20.26
2022-08-27T02:06:49.470Z,20.12
2022-08-27T02:09:21.346Z,20.16
2022-08-27T02:11:53.033Z,20.29
2022-08-27T02:14:24.747Z,20.20
2022-08-27T02:16:56.180Z,20.16
2022-08-27T02:19:28.216Z,20.18
2022-08-27T02:22:00.882Z,20.11
2022-08-27T02:24:32.930Z,20.11
2022-08-27T02:27:04.345Z,20.08
2022-08-27T02:29:35.863Z,19.91
2022-08-27T02:32:07.537Z,19.78
2022-08-27T02:34:49.224Z,19.73
2022-08-27T02:37:21.140Z,19.81
2022-08-27T02:39:54.229Z,19.98
2022-08-27T02:42:25.914Z,19.96
2022-08-27T02:44:57.711Z,19.89
2022-08-27T02:47:29.651Z,19.86
2022-08-27T02:50:01.574Z,19.89
2022-08-27T02:52:33.351Z,19.87
2022-08-27T02:55:05.852Z,19.86
2022-08-27T02:57:37.911Z,19.87
2022-08-27T03:00:12.467Z,19.88
2022-08-27T03:02:44.437Z,19.92
2022-08-27T03:05:17.452Z,19.94
2022-08-27T03:07:49.810Z,19.90
2022-08-27T03:10:23.133Z,19.73
2022-08-27T03:12:54.908Z,19.73
2022-08-27T03:15:26.541Z,19.77
2022-08-27T03:18:15.735Z,19.65
2022-08-27T03:20:48.725Z,19.59
2022-08-27T03:23:24.285Z,19.52
2022-08-27T03:25:59.786Z,19.50
2022-08-27T03:28:35.818Z,19.63
2022-08-27T03:31:12.994Z,19.68
2022-08-27T03:33:48.724Z,19.63
2022-08-27T03:36:24.354Z,19.55
2022-08-27T03:39:01.818Z,19.46
2022-08-27T03:41:53.994Z,19.43
2022-08-27T03:44:25.741Z,19.31
2022-08-27T03:46:57.205Z,19.26
2022-08-27T03:49:28.959Z,19.29
2022-08-27T03:52:00.620Z,19.31
2022-08-27T03:54:33.109Z,19.26
2022-08-27T03:57:05.194Z,19.23
2022-08-27T03:59:36.999Z,19.15
2022-08-27T04:02:08.811Z,19.20
2022-08-27T04:04:40.670Z,19.20
2022-08-27T04:07:12.298Z,19.31
2022-08-27T04:09:43.617Z,19.36
2022-08-27T04:12:15.878Z,19.51
2022-08-27T04:14:47.248Z,19.65
2022-08-27T04:17:19.004Z,19.76
2022-08-27T04:19:52.729Z,20.03
2022-08-27T04:22:24.507Z,20.18
2022-08-27T04:24:56.504Z,20.57
2022-08-27T04:27:27.912Z,20.95
2022-08-27T04:30:01.157Z,21.18
2022-08-27T04:32:33.132Z,21.28
2022-08-27T04:35:06.296Z,21.56
2022-08-27T04:37:37.804Z,21.97
2022-08-27T04:40:11.851Z,22.19
2022-08-27T04:42:44.306Z,22.34
2022-08-27T04:45:15.952Z,22.78
2022-08-27T04:47:47.379Z,23.16
2022-08-27T04:50:19.167Z,23.44
2022-08-27T04:52:50.776Z,23.69
2022-08-27T04:55:22.258Z,24.00
2022-08-27T04:57:53.780Z,24.30
2022-08-27T05:00:25.468Z,24.49
2022-08-27T05:02:56.881Z,24.67
2022-08-27T05:05:30.203Z,24.71
2022-08-27T05:08:01.964Z,24.86
2022-08-27T05:10:33.679Z,25.06
2022-08-27T05:13:05.067Z,25.18
2022-08-27T05:15:36.515Z,25.39
2022-08-27T05:18:09.833Z,25.48
2022-08-27T05:20:47.834Z,25.64
2022-08-27T05:23:21.402Z,25.75
2022-08-27T05:25:54.326Z,25.99
2022-08-27T05:28:27.957Z,26.14
2022-08-27T05:31:08.479Z,26.10
2022-08-27T05:33:41.022Z,26.20
2022-08-27T05:36:20.082Z,26.29
2022-08-27T05:38:51.926Z,26.41
2022-08-27T05:41:34.192Z,26.60
2022-08-27T05:44:39.126Z,26.80
2022-08-27T05:47:03.820Z,26.90
2022-08-27T05:49:35.590Z,27.07
2022-08-27T05:52:09.273Z,27.30
2022-08-27T05:54:41.252Z,27.47
2022-08-27T05:57:13.333Z,27.66
2022-08-27T06:00:16.661Z,27.81
2022-08-27T06:02:48.692Z,27.86
2022-08-27T06:05:21.195Z,27.80
2022-08-27T06:07:52.820Z,27.69
2022-08-27T06:10:24.394Z,27.57
2022-08-27T06:12:57.129Z,27.64
2022-08-27T06:15:28.690Z,27.78
2022-08-27T06:18:00.221Z,27.96
2022-08-27T06:20:31.617Z,27.95
2022-08-27T06:23:03.068Z,28.06
2022-08-27T06:25:34.654Z,28.24
2022-08-27T06:28:06.675Z,28.41
2022-08-27T06:30:39.235Z,28.59
2022-08-27T06:33:11.288Z,28.58
2022-08-27T06:35:43.341Z,28.65
2022-08-27T06:38:14.836Z,28.76
2022-08-27T06:40:46.186Z,28.99
2022-08-27T06:43:20.170Z,28.98
2022-08-27T06:45:55.600Z,28.93
2022-08-27T06:48:27.250Z,28.82
2022-08-27T06:50:58.808Z,28.72
2022-08-27T06:53:30.328Z,28.86
2022-08-27T06:56:02.162Z,28.84
2022-08-27T06:58:35.043Z,28.96
2022-08-27T07:01:16.040Z,29.00
2022-08-27T07:03:49.251Z,28.93
2022-08-27T07:06:21.294Z,29.07
2022-08-27T07:08:53.602Z,29.03
2022-08-27T07:11:26.612Z,29.03
2022-08-27T07:14:00.224Z,29.15
2022-08-27T07:16:32.694Z,29.27
2022-08-27T07:19:06.694Z,29.27
2022-08-27T07:21:40.285Z,29.28
2022-08-27T07:24:13.070Z,29.33
2022-08-27T07:26:47.002Z,29.50
2022-08-27T07:29:18.481Z,29.70
2022-08-27T07:31:49.971Z,29.87
2022-08-27T07:34:21.325Z,29.85
2022-08-27T07:36:52.871Z,29.74
2022-08-27T07:39:24.650Z,29.82
2022-08-27T07:42:16.876Z,29.74
2022-08-27T07:44:48.567Z,29.85
2022-08-27T07:47:20.299Z,29.97
2022-08-27T07:49:52.145Z,30.25
2022-08-27T07:52:26.424Z,30.33
2022-08-27T07:54:58.071Z,30.37
2022-08-27T07:57:29.481Z,30.43
2022-08-27T08:00:01.619Z,30.63
2022-08-27T08:02:33.025Z,30.55
2022-08-27T08:05:05.815Z,30.41
2022-08-27T08:07:38.938Z,30.47
2022-08-27T08:10:13.232Z,30.48
2022-08-27T08:12:44.967Z,30.65
2022-08-27T08:15:17.786Z,30.71
2022-08-27T08:17:49.816Z,30.76
2022-08-27T08:20:35.859Z,30.97
2022-08-27T08:23:14.446Z,31.10
2022-08-27T08:25:46.057Z,31.17
2022-08-27T08:28:17.622Z,31.16
2022-08-27T08:30:49.258Z,31.29
2022-08-27T08:33:20.851Z,31.32
2022-08-27T08:35:53.267Z,31.34
2022-08-27T08:38:24.650Z,31.29
2022-08-27T08:40:56.197Z,31.16
2022-08-27T08:43:34.670Z,31.11
2022-08-27T08:46:14.015Z,30.99
2022-08-27T08:48:51.081Z,31.18
2022-08-27T08:51:29.741Z,31.28
2022-08-27T08:54:05.282Z,31.38
2022-08-27T08:56:45.265Z,31.35
2022-08-27T08:59:23.929Z,31.26
2022-08-27T09:01:56.080Z,31.25
2022-08-27T09:04:29.921Z,31.35
2022-08-27T09:07:08.799Z,31.44
2022-08-27T09:09:47.466Z,31.53
2022-08-27T09:12:25.492Z,31.60
2022-08-27T09:15:01.454Z,31.62
2022-08-27T09:17:33.861Z,31.70
2022-08-27T09:20:05.785Z,31.69
2022-08-27T09:22:51.433Z,31.52
2022-08-27T09:25:30.861Z,31.43
2022-08-27T09:28:27.440Z,31.36
2022-08-27T09:31:05.090Z,31.29
2022-08-27T09:33:44.646Z,31.39
2022-08-27T09:36:28.453Z,31.54
2022-08-27T09:39:05.778Z,31.63
2022-08-27T09:41:43.742Z,31.56
2022-08-27T09:44:24.345Z,31.41
2022-08-27T09:46:59.043Z,31.46
2022-08-27T09:49:31.253Z,31.43
2022-08-27T09:52:03.272Z,31.37
2022-08-27T09:54:46.842Z,31.35
2022-08-27T09:57:34.454Z,31.41
2022-08-27T10:00:09.179Z,31.44
2022-08-27T10:02:50.116Z,31.42
2022-08-27T10:05:29.437Z,31.32
2022-08-27T10:08:04.522Z,31.23
2022-08-27T10:10:47.860Z,31.40
2022-08-27T10:13:23.181Z,31.63
2022-08-27T10:16:10.120Z,31.74
2022-08-27T10:18:50.493Z,31.63
2022-08-27T10:21:29.430Z,31.64
2022-08-27T10:24:11.696Z,31.84
2022-08-27T10:26:51.010Z,31.81
2022-08-27T10:29:34.785Z,31.74
2022-08-27T10:32:16.543Z,31.72
2022-08-27T10:35:07.457Z,31.64
2022-08-27T10:37:49.888Z,31.60
2022-08-27T10:40:26.342Z,31.59
2022-08-27T10:43:07.204Z,31.62
2022-08-27T10:45:47.729Z,31.74
2022-08-27T10:48:35.193Z,31.85
2022-08-27T10:51:15.865Z,31.85
2022-08-27T10:53:54.693Z,31.86
2022-08-27T10:56:34.970Z,31.89
2022-08-27T10:59:19.131Z,31.90
2022-08-27T11:02:00.141Z,31.78
2022-08-27T11:04:37.189Z,31.73
2022-08-27T11:07:16.726Z,31.75
2022-08-27T11:09:56.932Z,31.68
2022-08-27T11:12:35.187Z,31.73
2022-08-27T11:15:13.207Z,31.74
2022-08-27T11:17:52.511Z,31.82
2022-08-27T11:20:27.190Z,31.88
2022-08-27T11:23:03.566Z,31.75
2022-08-27T11:25:51.186Z,31.81
2022-08-27T11:28:29.612Z,31.86
2022-08-27T11:31:08.999Z,31.92
2022-08-27T11:33:48.573Z,31.90
2022-08-27T11:37:03.164Z,31.96
2022-08-27T11:39:55.588Z,32.22
2022-08-27T11:42:37.100Z,32.31
2022-08-27T11:45:17.218Z,32.22
2022-08-27T11:47:57.211Z,32.24
2022-08-27T11:50:31.141Z,32.27
2022-08-27T11:53:06.209Z,32.29
2022-08-27T11:55:39.951Z,32.29
2022-08-27T11:58:26.039Z,32.29
2022-08-27T12:01:03.787Z,32.21
2022-08-27T12:03:37.423Z,32.26
2022-08-27T12:06:27.592Z,32.26
2022-08-27T12:09:16.028Z,32.24
2022-08-27T12:11:59.897Z,32.23
2022-08-27T12:14:44.922Z,32.26
2022-08-27T12:17:28.629Z,32.12
2022-08-27T12:20:10.959Z,32.10
2022-08-27T12:23:15.880Z,32.06
2022-08-27T12:25:58.438Z,32.14
2022-08-27T12:28:30.466Z,32.20
2022-08-27T12:31:05.353Z,32.16
2022-08-27T12:33:43.491Z,32.10
2022-08-27T12:36:27.860Z,32.07
2022-08-27T12:39:04.099Z,32.05
2022-08-27T12:41:43.830Z,32.14
2022-08-27T12:44:24.595Z,32.17
2022-08-27T12:47:00.733Z,32.29
2022-08-27T12:49:39.422Z,32.34
2022-08-27T12:52:26.391Z,32.45
2022-08-27T12:55:14.607Z,32.51
2022-08-27T12:57:57.520Z,32.55
2022-08-27T13:00:36.439Z,32.43
2022-08-27T13:03:27.270Z,32.37
2022-08-27T13:06:01.154Z,32.59
2022-08-27T13:08:35.738Z,32.56
2022-08-27T13:11:24.489Z,32.55
2022-08-27T13:14:06.846Z,32.55
2022-08-27T13:16:40.529Z,32.57
2022-08-27T13:19:17.861Z,32.45
2022-08-27T13:21:54.096Z,32.39
2022-08-27T13:24:32.966Z,32.31
2022-08-27T13:27:07.567Z,32.24
2022-08-27T13:29:39.775Z,32.23
2022-08-27T13:32:15.795Z,32.15
2022-08-27T13:34:47.583Z,32.08
2022-08-27T13:37:28.201Z,32.06
2022-08-27T13:40:00.558Z,32.11
2022-08-27T13:42:33.784Z,32.22
2022-08-27T13:45:08.446Z,32.20
2022-08-27T13:47:49.453Z,32.16
2022-08-27T13:50:26.440Z,32.25
2022-08-27T13:53:25.089Z,32.39
2022-08-27T13:55:58.818Z,32.38
2022-08-27T13:58:30.487Z,32.45
2022-08-27T14:01:15.140Z,32.32
2022-08-27T14:03:58.085Z,32.28
2022-08-27T14:06:35.684Z,32.34
2022-08-27T14:09:19.925Z,32.43
2022-08-27T14:11:59.581Z,32.36
2022-08-27T14:14:32.112Z,32.27
2022-08-27T14:17:05.570Z,32.32
2022-08-27T14:19:40.287Z,32.35
2022-08-27T14:22:12.537Z,32.22
2022-08-27T14:24:43.929Z,32.23
2022-08-27T14:27:20.298Z,32.20
2022-08-27T14:29:52.105Z,32.12
2022-08-27T14:32:23.498Z,32.01
2022-08-27T14:34:55.218Z,31.99
2022-08-27T14:37:26.896Z,31.88
2022-08-27T14:39:58.710Z,31.77
2022-08-27T14:42:30.478Z,31.77
2022-08-27T14:45:01.928Z,31.79
2022-08-27T14:47:34.612Z,31.88
2022-08-27T14:50:08.489Z,32.05
2022-08-27T14:52:41.185Z,32.00
2022-08-27T14:55:14.876Z,31.86
2022-08-27T14:57:45.321Z,31.88
2022-08-27T15:00:17.384Z,31.99
2022-08-27T15:02:50.085Z,32.01
2022-08-27T15:05:23.480Z,32.18
2022-08-27T15:07:58.215Z,32.25
2022-08-27T15:10:30.094Z,32.26
2022-08-27T15:13:02.284Z,32.26
2022-08-27T15:15:33.923Z,32.27
2022-08-27T15:18:05.346Z,32.22
2022-08-27T15:20:37.393Z,32.01
2022-08-27T15:23:09.515Z,32.05
2022-08-27T15:25:42.120Z,32.03
2022-08-27T15:28:13.827Z,31.94
2022-08-27T15:30:46.036Z,31.94
2022-08-27T15:33:18.013Z,31.95
2022-08-27T15:35:50.922Z,31.96
2022-08-27T15:38:22.616Z,31.96
2022-08-27T15:40:54.097Z,31.94
2022-08-27T15:43:27.011Z,31.92
2022-08-27T15:45:59.228Z,31.76
2022-08-27T15:48:30.956Z,31.74
2022-08-27T15:51:06.330Z,31.71
2022-08-27T15:53:38.469Z,31.72
2022-08-27T15:56:11.559Z,31.80
2022-08-27T15:58:45.349Z,31.74
2022-08-27T16:01:23.704Z,31.68
2022-08-27T16:03:55.570Z,31.52
2022-08-27T16:06:27.782Z,31.50
2022-08-27T16:08:59.591Z,31.50
2022-08-27T16:11:31.191Z,31.44
2022-08-27T16:14:03.452Z,31.27
2022-08-27T16:16:35.903Z,31.21
2022-08-27T16:19:10.278Z,31.24
2022-08-27T16:21:44.316Z,31.24
2022-08-27T16:24:16.204Z,31.27
2022-08-27T16:26:48.853Z,31.13
2022-08-27T16:29:20.292Z,30.91
2022-08-27T16:31:52.237Z,30.86
2022-08-27T16:34:28.141Z,30.82
2022-08-27T16:37:00.522Z,30.77
2022-08-27T16:39:34.638Z,30.64
2022-08-27T16:42:11.468Z,30.62
2022-08-27T16:44:43.361Z,30.61
2022-08-27T16:47:14.858Z,30.56
2022-08-27T16:50:24.395Z,30.56
2022-08-27T16:52:57.731Z,30.53
2022-08-27T16:55:29.316Z,30.61
2022-08-27T16:58:01.254Z,30.53
2022-08-27T17:00:33.873Z,30.41
2022-08-27T17:03:05.987Z,30.31
2022-08-27T17:05:38.780Z,30.32
2022-08-27T17:08:11.618Z,30.19
2022-08-27T17:10:46.974Z,30.17
2022-08-27T17:13:21.335Z,30.20
2022-08-27T17:16:02.017Z,30.12
2022-08-27T17:18:31.984Z,30.06
2022-08-27T17:21:04.893Z,30.14
2022-08-27T17:23:41.121Z,29.91
2022-08-27T17:26:14.605Z,29.88
2022-08-27T17:28:46.497Z,29.82
2022-08-27T17:31:27.980Z,29.62
2022-08-27T17:34:01.283Z,29.46
2022-08-27T17:36:34.379Z,29.35
2022-08-27T17:39:06.057Z,29.33
2022-08-27T17:41:41.755Z,29.31
2022-08-27T17:44:19.981Z,29.08
2022-08-27T17:46:52.135Z,28.89
2022-08-27T17:49:23.766Z,28.75
2022-08-27T17:52:00.122Z,28.68
2022-08-27T17:54:36.560Z,28.71
2022-08-27T17:57:15.917Z,28.72
2022-08-27T17:59:48.120Z,28.60
2022-08-27T18:02:23.273Z,28.50
2022-08-27T18:04:55.008Z,28.47
2022-08-27T18:07:27.088Z,28.37
2022-08-27T18:09:58.633Z,28.22
2022-08-27T18:12:30.443Z,28.11
2022-08-27T18:15:09.380Z,27.99
2022-08-27T18:17:42.579Z,27.92
2022-08-27T18:20:17.053Z,27.81
2022-08-27T18:22:50.204Z,27.68
2022-08-27T18:25:25.217Z,27.64
2022-08-27T18:28:00.716Z,27.42
2022-08-27T18:30:32.862Z,27.35
2022-08-27T18:33:04.235Z,27.30
2022-08-27T18:35:36.817Z,27.26
2022-08-27T18:38:08.717Z,27.27
2022-08-27T18:40:43.105Z,27.19
2022-08-27T18:43:14.874Z,26.93
2022-08-27T18:45:46.600Z,26.97
2022-08-27T18:48:21.985Z,26.92
2022-08-27T18:50:58.743Z,26.80
2022-08-27T18:53:32.572Z,26.73
2022-08-27T18:56:05.691Z,26.62
2022-08-27T18:58:38.903Z,26.64
2022-08-27T19:01:14.584Z,26.62
2022-08-27T19:03:51.938Z,26.49
2022-08-27T19:06:24.255Z,26.45
2022-08-27T19:08:56.002Z,26.31
2022-08-27T19:11:27.475Z,26.30
2022-08-27T19:13:59.023Z,26.16
2022-08-27T19:16:43.656Z,26.12
2022-08-27T19:19:16.967Z,26.08
2022-08-27T19:21:51.541Z,26.03
2022-08-27T19:24:24.172Z,25.98
2022-08-27T19:26:56.451Z,25.98
2022-08-27T19:29:28.001Z,25.83
2022-08-27T19:31:59.579Z,25.61
2022-08-27T19:34:31.327Z,25.41
2022-08-27T19:37:04.197Z,25.43
2022-08-27T19:39:37.509Z,25.45
2022-08-27T19:42:09.514Z,25.30
2022-08-27T19:44:41.548Z,25.19
2022-08-27T19:47:14.362Z,25.19
2022-08-27T19:49:48.411Z,25.10
2022-08-27T19:52:20.085Z,24.93
2022-08-27T19:55:12.454Z,24.96
2022-08-27T19:57:43.238Z,25.07
2022-08-27T20:00:18.025Z,25.07
2022-08-27T20:02:50.742Z,25.12
2022-08-27T20:05:24.290Z,25.13
2022-08-27T20:07:56.175Z,25.17
2022-08-27T20:10:36.149Z,25.04
2022-08-27T20:13:09.218Z,24.94
2022-08-27T20:15:41.048Z,24.94
2022-08-27T20:18:14.544Z,24.77
2022-08-27T20:20:47.259Z,24.79
2022-08-27T20:23:18.964Z,24.77
2022-08-27T20:25:52.514Z,24.63
2022-08-27T20:28:38.742Z,24.56
2022-08-27T20:31:11.326Z,24.55
2022-08-27T20:33:42.675Z,24.53
2022-08-27T20:36:15.499Z,24.55
2022-08-27T20:38:47.231Z,24.51
2022-08-27T20:41:18.840Z,24.64
2022-08-27T20:43:50.114Z,24.70
2022-08-27T20:46:28.313Z,24.62
2022-08-27T20:48:59.967Z,24.64
2022-08-27T20:51:32.210Z,24.71
2022-08-27T20:54:23.634Z,24.70
2022-08-27T20:56:55.102Z,24.69
2022-08-27T20:59:44.631Z,24.68
2022-08-27T21:02:21.534Z,24.69
2022-08-27T21:04:53.450Z,24.76
2022-08-27T21:07:25.510Z,24.72
2022-08-27T21:09:57.660Z,24.62
2022-08-27T21:12:31.333Z,24.55
2022-08-27T21:15:03.399Z,24.61
2022-08-27T21:17:35.444Z,24.57
2022-08-27T21:20:08.819Z,24.50
2022-08-27T21:22:41.411Z,24.46
2022-08-27T21:25:16.059Z,24.41
2022-08-27T21:27:47.672Z,24.27
2022-08-27T21:30:19.490Z,24.12
2022-08-27T21:32:50.951Z,24.03
2022-08-27T21:35:22.618Z,24.02
2022-08-27T21:37:54.263Z,23.88
2022-08-27T21:40:28.603Z,23.86
2022-08-27T21:43:02.273Z,23.81
2022-08-27T21:45:33.802Z,23.89
2022-08-27T21:48:06.474Z,23.80
2022-08-27T21:50:38.000Z,23.77
2022-08-27T21:53:09.474Z,23.85
2022-08-27T21:55:40.901Z,23.76
2022-08-27T21:58:13.020Z,23.60
2022-08-27T22:00:48.121Z,23.68
2022-08-27T22:03:24.416Z,23.63
2022-08-27T22:05:55.956Z,23.64
2022-08-27T22:08:27.860Z,23.65
2022-08-27T22:11:00.913Z,23.66
2022-08-27T22:13:32.377Z,23.61
2022-08-27T22:16:04.056Z,23.58
2022-08-27T22:18:35.507Z,23.69
2022-08-27T22:21:10.131Z,23.50
2022-08-27T22:23:43.182Z,23.32
2022-08-27T22:26:16.795Z,23.25
2022-08-27T22:28:48.440Z,23.25
2022-08-27T22:31:20.447Z,23.26
2022-08-27T22:33:52.606Z,23.25
2022-08-27T22:36:24.226Z,23.37
2022-08-27T22:39:03.550Z,23.40
2022-08-27T22:41:35.516Z,23.40
2022-08-27T22:44:07.376Z,23.28
2022-08-27T22:46:38.807Z,23.12
2022-08-27T22:49:10.245Z,23.15
2022-08-27T22:51:41.654Z,23.15
2022-08-27T22:54:13.434Z,23.06
2022-08-27T22:56:45.366Z,23.05
2022-08-27T22:59:17.007Z,23.03
2022-08-27T23:01:48.541Z,23.08
2022-08-27T23:04:25.476Z,23.10
2022-08-27T23:07:06.460Z,23.15
2022-08-27T23:09:38.093Z,23.08
2022-08-27T23:12:10.077Z,23.07
2022-08-27T23:14:41.747Z,23.01
2022-08-27T23:17:16.425Z,23.02
2022-08-27T23:19:48.651Z,23.08
2022-08-27T23:22:20.011Z,23.09
2022-08-27T23:25:08.589Z,22.89
2022-08-27T23:27:40.095Z,22.64
2022-08-27T23:30:15.156Z,22.74
2022-08-27T23:32:50.191Z,22.66
2022-08-27T23:35:27.668Z,22.61
2022-08-27T23:37:59.742Z,22.59
2022-08-27T23:40:32.520Z,22.50
2022-08-27T23:43:04.084Z,22.52
2022-08-27T23:45:40.171Z,22.50
2022-08-27T23:48:13.290Z,22.59
2022-08-27T23:50:45.161Z,22.66
2022-08-27T23:53:16.642Z,22.60
2022-08-27T23:55:47.974Z,22.52
2022-08-27T23:58:19.789Z,22.35
